sensor_id;sensor_type;location;lat;lon;timestamp;P1;durP1;ratioP1;P2;durP2;ratioP2
37609;SDS011;23457;51.966;8.230;2023-05-29T00:00:35;14.23;;;3.15;;
37609;SDS011;23457;51.966;8.230;2023-05-29T00:03:01;21.15;;;3.90;;
37609;SDS011;23457;51.966;8.230;2023-05-29T00:05:31;19.10;;;3.60;;
37609;SDS011;23457;51.966;8.230;2023-05-29T00:07:58;17.60;;;3.70;;
37609;SDS011;23457;51.966;8.230;2023-05-29T00:10:24;20.15;;;3.70;;
37609;SDS011;23457;51.966;8.230;2023-05-29T00:12:51;19.00;;;3.53;;
37609;SDS011;23457;51.966;8.230;2023-05-29T00:15:18;21.90;;;4.00;;
37609;SDS011;23457;51.966;8.230;2023-05-29T00:17:45;18.92;;;3.20;;
37609;SDS011;23457;51.966;8.230;2023-05-29T00:20:12;14.60;;;3.03;;
37609;SDS011;23457;51.966;8.230;2023-05-29T00:22:39;18.08;;;3.92;;
37609;SDS011;23457;51.966;8.230;2023-05-29T00:25:06;19.30;;;3.20;;
37609;SDS011;23457;51.966;8.230;2023-05-29T00:27:34;20.33;;;3.40;;
37609;SDS011;23457;51.966;8.230;2023-05-29T00:30:02;19.13;;;3.50;;
37609;SDS011;23457;51.966;8.230;2023-05-29T00:32:30;25.77;;;3.63;;
37609;SDS011;23457;51.966;8.230;2023-05-29T00:34:57;21.40;;;3.30;;
37609;SDS011;23457;51.966;8.230;2023-05-29T00:37:24;28.10;;;4.63;;
37609;SDS011;23457;51.966;8.230;2023-05-29T00:39:51;17.00;;;3.88;;
37609;SDS011;23457;51.966;8.230;2023-05-29T00:42:17;21.30;;;3.83;;
37609;SDS011;23457;51.966;8.230;2023-05-29T00:44:44;19.92;;;3.90;;
37609;SDS011;23457;51.966;8.230;2023-05-29T00:47:11;20.95;;;4.30;;
37609;SDS011;23457;51.966;8.230;2023-05-29T00:49:37;24.40;;;4.30;;
37609;SDS011;23457;51.966;8.230;2023-05-29T00:52:04;27.95;;;5.30;;
37609;SDS011;23457;51.966;8.230;2023-05-29T00:54:33;24.23;;;5.22;;
37609;SDS011;23457;51.966;8.230;2023-05-29T00:57:01;21.58;;;4.63;;
37609;SDS011;23457;51.966;8.230;2023-05-29T00:59:30;25.30;;;4.95;;
37609;SDS011;23457;51.966;8.230;2023-05-29T01:01:59;22.83;;;5.32;;
37609;SDS011;23457;51.966;8.230;2023-05-29T01:06:55;19.83;;;4.68;;
37609;SDS011;23457;51.966;8.230;2023-05-29T01:09:22;25.08;;;4.85;;
37609;SDS011;23457;51.966;8.230;2023-05-29T01:14:19;22.92;;;4.95;;
37609;SDS011;23457;51.966;8.230;2023-05-29T01:25:29;18.55;;;4.30;;
37609;SDS011;23457;51.966;8.230;2023-05-29T01:28:20;18.23;;;3.97;;
37609;SDS011;23457;51.966;8.230;2023-05-29T01:30:49;19.23;;;4.70;;
37609;SDS011;23457;51.966;8.230;2023-05-29T01:33:16;19.13;;;4.17;;
37609;SDS011;23457;51.966;8.230;2023-05-29T01:35:43;24.27;;;4.43;;
37609;SDS011;23457;51.966;8.230;2023-05-29T01:38:10;15.88;;;3.38;;
37609;SDS011;23457;51.966;8.230;2023-05-29T01:40:37;17.73;;;3.38;;
37609;SDS011;23457;51.966;8.230;2023-05-29T01:43:04;25.20;;;3.88;;
37609;SDS011;23457;51.966;8.230;2023-05-29T01:45:32;15.18;;;3.83;;
37609;SDS011;23457;51.966;8.230;2023-05-29T01:47:59;23.95;;;4.18;;
37609;SDS011;23457;51.966;8.230;2023-05-29T01:50:26;16.80;;;3.97;;
37609;SDS011;23457;51.966;8.230;2023-05-29T01:52:55;14.10;;;3.22;;
37609;SDS011;23457;51.966;8.230;2023-05-29T01:55:22;16.60;;;3.90;;
37609;SDS011;23457;51.966;8.230;2023-05-29T01:57:49;17.77;;;4.00;;
37609;SDS011;23457;51.966;8.230;2023-05-29T02:00:17;18.27;;;3.30;;
37609;SDS011;23457;51.966;8.230;2023-05-29T02:02:46;18.80;;;3.28;;
37609;SDS011;23457;51.966;8.230;2023-05-29T02:05:13;21.08;;;4.07;;
37609;SDS011;23457;51.966;8.230;2023-05-29T02:07:40;18.73;;;3.40;;
37609;SDS011;23457;51.966;8.230;2023-05-29T02:10:07;15.50;;;3.40;;
37609;SDS011;23457;51.966;8.230;2023-05-29T02:12:34;22.00;;;3.72;;
37609;SDS011;23457;51.966;8.230;2023-05-29T02:15:01;19.38;;;3.05;;
37609;SDS011;23457;51.966;8.230;2023-05-29T02:17:28;16.10;;;3.20;;
37609;SDS011;23457;51.966;8.230;2023-05-29T02:19:55;17.33;;;3.50;;
37609;SDS011;23457;51.966;8.230;2023-05-29T02:22:22;24.48;;;5.88;;
37609;SDS011;23457;51.966;8.230;2023-05-29T02:24:48;14.93;;;3.53;;
37609;SDS011;23457;51.966;8.230;2023-05-29T02:27:15;14.65;;;2.97;;
37609;SDS011;23457;51.966;8.230;2023-05-29T02:29:42;22.00;;;3.92;;
37609;SDS011;23457;51.966;8.230;2023-05-29T02:32:09;17.25;;;3.47;;
37609;SDS011;23457;51.966;8.230;2023-05-29T02:34:37;19.27;;;3.13;;
37609;SDS011;23457;51.966;8.230;2023-05-29T02:37:04;15.73;;;2.90;;
37609;SDS011;23457;51.966;8.230;2023-05-29T02:39:30;15.27;;;3.10;;
37609;SDS011;23457;51.966;8.230;2023-05-29T02:41:57;20.15;;;3.55;;
37609;SDS011;23457;51.966;8.230;2023-05-29T02:44:24;21.10;;;2.78;;
37609;SDS011;23457;51.966;8.230;2023-05-29T02:46:51;22.48;;;3.65;;
37609;SDS011;23457;51.966;8.230;2023-05-29T02:49:19;27.30;;;3.60;;
37609;SDS011;23457;51.966;8.230;2023-05-29T02:51:45;15.18;;;3.22;;
37609;SDS011;23457;51.966;8.230;2023-05-29T02:54:12;13.60;;;3.30;;
37609;SDS011;23457;51.966;8.230;2023-05-29T02:56:40;18.83;;;3.55;;
37609;SDS011;23457;51.966;8.230;2023-05-29T02:59:06;20.27;;;3.00;;
37609;SDS011;23457;51.966;8.230;2023-05-29T03:01:34;19.45;;;3.92;;
37609;SDS011;23457;51.966;8.230;2023-05-29T03:04:01;23.58;;;4.32;;
37609;SDS011;23457;51.966;8.230;2023-05-29T03:06:29;13.93;;;2.70;;
37609;SDS011;23457;51.966;8.230;2023-05-29T03:08:56;17.40;;;3.17;;
37609;SDS011;23457;51.966;8.230;2023-05-29T03:11:22;16.27;;;2.97;;
37609;SDS011;23457;51.966;8.230;2023-05-29T03:13:51;16.50;;;2.78;;
37609;SDS011;23457;51.966;8.230;2023-05-29T03:16:18;20.55;;;3.45;;
37609;SDS011;23457;51.966;8.230;2023-05-29T03:18:44;14.07;;;3.08;;
37609;SDS011;23457;51.966;8.230;2023-05-29T03:21:15;27.80;;;3.88;;
37609;SDS011;23457;51.966;8.230;2023-05-29T03:23:42;22.17;;;3.55;;
37609;SDS011;23457;51.966;8.230;2023-05-29T03:26:09;24.63;;;3.42;;
37609;SDS011;23457;51.966;8.230;2023-05-29T03:28:38;16.15;;;3.65;;
37609;SDS011;23457;51.966;8.230;2023-05-29T03:31:08;18.55;;;3.08;;
37609;SDS011;23457;51.966;8.230;2023-05-29T03:33:35;17.23;;;3.45;;
37609;SDS011;23457;51.966;8.230;2023-05-29T03:36:14;15.20;;;3.17;;
37609;SDS011;23457;51.966;8.230;2023-05-29T03:38:43;13.45;;;2.40;;
37609;SDS011;23457;51.966;8.230;2023-05-29T03:41:10;16.52;;;3.92;;
37609;SDS011;23457;51.966;8.230;2023-05-29T03:43:37;21.95;;;3.35;;
37609;SDS011;23457;51.966;8.230;2023-05-29T03:46:04;21.20;;;3.17;;
37609;SDS011;23457;51.966;8.230;2023-05-29T03:48:33;18.70;;;3.83;;
37609;SDS011;23457;51.966;8.230;2023-05-29T03:50:59;20.17;;;2.85;;
37609;SDS011;23457;51.966;8.230;2023-05-29T03:53:32;16.25;;;3.30;;
37609;SDS011;23457;51.966;8.230;2023-05-29T03:55:59;17.90;;;3.15;;
37609;SDS011;23457;51.966;8.230;2023-05-29T03:58:26;14.88;;;2.90;;
37609;SDS011;23457;51.966;8.230;2023-05-29T04:00:54;20.30;;;3.97;;
37609;SDS011;23457;51.966;8.230;2023-05-29T04:03:20;18.23;;;3.50;;
37609;SDS011;23457;51.966;8.230;2023-05-29T04:05:48;19.42;;;3.25;;
37609;SDS011;23457;51.966;8.230;2023-05-29T04:08:15;15.05;;;3.15;;
37609;SDS011;23457;51.966;8.230;2023-05-29T04:10:42;17.52;;;3.40;;
37609;SDS011;23457;51.966;8.230;2023-05-29T04:13:09;18.98;;;3.50;;
37609;SDS011;23457;51.966;8.230;2023-05-29T04:15:37;19.33;;;3.10;;
37609;SDS011;23457;51.966;8.230;2023-05-29T04:18:04;21.90;;;3.83;;
37609;SDS011;23457;51.966;8.230;2023-05-29T04:20:32;16.73;;;2.83;;
37609;SDS011;23457;51.966;8.230;2023-05-29T04:22:59;16.50;;;3.70;;
37609;SDS011;23457;51.966;8.230;2023-05-29T04:25:26;18.90;;;3.17;;
37609;SDS011;23457;51.966;8.230;2023-05-29T04:27:53;17.30;;;2.80;;
37609;SDS011;23457;51.966;8.230;2023-05-29T04:30:21;19.23;;;3.00;;
37609;SDS011;23457;51.966;8.230;2023-05-29T04:32:47;18.48;;;3.95;;
37609;SDS011;23457;51.966;8.230;2023-05-29T04:35:15;22.15;;;2.88;;
37609;SDS011;23457;51.966;8.230;2023-05-29T04:37:52;19.40;;;3.70;;
37609;SDS011;23457;51.966;8.230;2023-05-29T04:40:19;22.65;;;4.80;;
37609;SDS011;23457;51.966;8.230;2023-05-29T04:42:47;20.98;;;2.78;;
37609;SDS011;23457;51.966;8.230;2023-05-29T04:45:14;15.18;;;3.28;;
37609;SDS011;23457;51.966;8.230;2023-05-29T04:47:42;18.55;;;3.35;;
37609;SDS011;23457;51.966;8.230;2023-05-29T04:52:41;16.00;;;3.45;;
37609;SDS011;23457;51.966;8.230;2023-05-29T04:55:10;13.63;;;2.93;;
37609;SDS011;23457;51.966;8.230;2023-05-29T04:57:38;15.55;;;2.83;;
37609;SDS011;23457;51.966;8.230;2023-05-29T05:00:08;17.67;;;3.88;;
37609;SDS011;23457;51.966;8.230;2023-05-29T05:02:38;19.08;;;3.58;;
37609;SDS011;23457;51.966;8.230;2023-05-29T05:05:05;17.88;;;2.80;;
37609;SDS011;23457;51.966;8.230;2023-05-29T05:07:32;18.15;;;2.70;;
37609;SDS011;23457;51.966;8.230;2023-05-29T05:10:00;16.33;;;3.33;;
37609;SDS011;23457;51.966;8.230;2023-05-29T05:12:28;16.48;;;3.13;;
37609;SDS011;23457;51.966;8.230;2023-05-29T05:14:55;16.30;;;3.13;;
37609;SDS011;23457;51.966;8.230;2023-05-29T05:17:21;15.57;;;3.47;;
37609;SDS011;23457;51.966;8.230;2023-05-29T05:19:48;23.25;;;3.63;;
37609;SDS011;23457;51.966;8.230;2023-05-29T05:22:15;18.95;;;3.05;;
37609;SDS011;23457;51.966;8.230;2023-05-29T05:24:42;18.80;;;3.58;;
37609;SDS011;23457;51.966;8.230;2023-05-29T05:27:09;15.65;;;3.08;;
37609;SDS011;23457;51.966;8.230;2023-05-29T05:29:36;16.70;;;3.10;;
37609;SDS011;23457;51.966;8.230;2023-05-29T05:32:03;18.52;;;3.58;;
37609;SDS011;23457;51.966;8.230;2023-05-29T05:34:31;20.25;;;3.17;;
37609;SDS011;23457;51.966;8.230;2023-05-29T05:36:57;21.42;;;3.42;;
37609;SDS011;23457;51.966;8.230;2023-05-29T05:39:24;19.17;;;3.22;;
37609;SDS011;23457;51.966;8.230;2023-05-29T05:41:51;15.45;;;2.92;;
37609;SDS011;23457;51.966;8.230;2023-05-29T05:44:38;13.50;;;2.72;;
37609;SDS011;23457;51.966;8.230;2023-05-29T05:47:09;16.95;;;3.72;;
37609;SDS011;23457;51.966;8.230;2023-05-29T05:49:36;18.73;;;3.58;;
37609;SDS011;23457;51.966;8.230;2023-05-29T05:52:02;21.70;;;3.30;;
37609;SDS011;23457;51.966;8.230;2023-05-29T05:54:29;18.70;;;3.50;;
37609;SDS011;23457;51.966;8.230;2023-05-29T05:56:56;23.73;;;4.00;;
37609;SDS011;23457;51.966;8.230;2023-05-29T05:59:23;19.00;;;3.80;;
37609;SDS011;23457;51.966;8.230;2023-05-29T06:01:52;19.30;;;2.90;;
37609;SDS011;23457;51.966;8.230;2023-05-29T06:04:19;15.30;;;2.85;;
37609;SDS011;23457;51.966;8.230;2023-05-29T06:06:46;24.13;;;2.95;;
37609;SDS011;23457;51.966;8.230;2023-05-29T06:09:12;17.30;;;3.30;;
37609;SDS011;23457;51.966;8.230;2023-05-29T06:11:40;18.60;;;3.22;;
37609;SDS011;23457;51.966;8.230;2023-05-29T06:14:06;18.17;;;3.10;;
37609;SDS011;23457;51.966;8.230;2023-05-29T06:16:33;20.20;;;3.80;;
37609;SDS011;23457;51.966;8.230;2023-05-29T06:19:01;14.88;;;3.72;;
37609;SDS011;23457;51.966;8.230;2023-05-29T06:21:32;22.83;;;4.78;;
37609;SDS011;23457;51.966;8.230;2023-05-29T06:24:00;20.90;;;3.40;;
37609;SDS011;23457;51.966;8.230;2023-05-29T06:26:27;15.60;;;3.22;;
37609;SDS011;23457;51.966;8.230;2023-05-29T06:28:54;21.55;;;3.80;;
37609;SDS011;23457;51.966;8.230;2023-05-29T06:31:23;15.35;;;2.85;;
37609;SDS011;23457;51.966;8.230;2023-05-29T06:33:50;15.05;;;2.60;;
37609;SDS011;23457;51.966;8.230;2023-05-29T06:36:17;18.77;;;3.58;;
37609;SDS011;23457;51.966;8.230;2023-05-29T06:38:47;18.00;;;3.53;;
37609;SDS011;23457;51.966;8.230;2023-05-29T06:41:15;15.20;;;3.03;;
37609;SDS011;23457;51.966;8.230;2023-05-29T06:43:42;14.00;;;2.55;;
37609;SDS011;23457;51.966;8.230;2023-05-29T06:46:10;18.20;;;3.28;;
37609;SDS011;23457;51.966;8.230;2023-05-29T06:48:37;13.70;;;3.10;;
37609;SDS011;23457;51.966;8.230;2023-05-29T06:51:04;14.15;;;2.67;;
37609;SDS011;23457;51.966;8.230;2023-05-29T06:54:04;15.38;;;2.53;;
37609;SDS011;23457;51.966;8.230;2023-05-29T06:56:32;18.48;;;3.00;;
37609;SDS011;23457;51.966;8.230;2023-05-29T06:58:59;13.43;;;2.33;;
37609;SDS011;23457;51.966;8.230;2023-05-29T07:01:27;19.10;;;4.63;;
37609;SDS011;23457;51.966;8.230;2023-05-29T07:03:59;14.77;;;2.90;;
37609;SDS011;23457;51.966;8.230;2023-05-29T07:06:26;13.52;;;2.85;;
37609;SDS011;23457;51.966;8.230;2023-05-29T07:08:52;18.83;;;2.97;;
37609;SDS011;23457;51.966;8.230;2023-05-29T07:11:19;18.58;;;3.67;;
37609;SDS011;23457;51.966;8.230;2023-05-29T07:13:46;16.40;;;3.22;;
37609;SDS011;23457;51.966;8.230;2023-05-29T07:16:13;18.63;;;3.30;;
37609;SDS011;23457;51.966;8.230;2023-05-29T07:19:01;15.48;;;2.58;;
37609;SDS011;23457;51.966;8.230;2023-05-29T07:21:30;22.63;;;3.88;;
37609;SDS011;23457;51.966;8.230;2023-05-29T07:23:58;18.63;;;2.85;;
37609;SDS011;23457;51.966;8.230;2023-05-29T07:26:25;15.93;;;2.75;;
37609;SDS011;23457;51.966;8.230;2023-05-29T07:28:52;13.10;;;2.63;;
37609;SDS011;23457;51.966;8.230;2023-05-29T07:31:19;16.70;;;2.90;;
37609;SDS011;23457;51.966;8.230;2023-05-29T07:33:48;16.30;;;3.10;;
37609;SDS011;23457;51.966;8.230;2023-05-29T07:36:16;19.85;;;3.30;;
37609;SDS011;23457;51.966;8.230;2023-05-29T07:38:45;12.73;;;3.28;;
37609;SDS011;23457;51.966;8.230;2023-05-29T07:41:15;24.85;;;3.22;;
37609;SDS011;23457;51.966;8.230;2023-05-29T07:43:50;14.63;;;2.60;;
37609;SDS011;23457;51.966;8.230;2023-05-29T07:46:19;13.57;;;3.08;;
37609;SDS011;23457;51.966;8.230;2023-05-29T07:48:49;23.05;;;3.33;;
37609;SDS011;23457;51.966;8.230;2023-05-29T07:51:17;19.05;;;3.20;;
37609;SDS011;23457;51.966;8.230;2023-05-29T07:53:45;13.13;;;2.25;;
37609;SDS011;23457;51.966;8.230;2023-05-29T07:56:13;15.02;;;2.85;;
37609;SDS011;23457;51.966;8.230;2023-05-29T07:58:40;18.98;;;2.92;;
37609;SDS011;23457;51.966;8.230;2023-05-29T08:01:07;13.13;;;2.63;;
37609;SDS011;23457;51.966;8.230;2023-05-29T08:03:36;12.75;;;3.15;;
37609;SDS011;23457;51.966;8.230;2023-05-29T08:06:27;13.82;;;3.05;;
37609;SDS011;23457;51.966;8.230;2023-05-29T08:08:56;17.67;;;3.28;;
37609;SDS011;23457;51.966;8.230;2023-05-29T08:11:24;22.88;;;2.97;;
37609;SDS011;23457;51.966;8.230;2023-05-29T08:13:52;18.65;;;3.25;;
37609;SDS011;23457;51.966;8.230;2023-05-29T08:16:18;16.10;;;2.83;;
37609;SDS011;23457;51.966;8.230;2023-05-29T08:18:45;24.23;;;3.25;;
37609;SDS011;23457;51.966;8.230;2023-05-29T08:21:12;16.88;;;2.72;;
37609;SDS011;23457;51.966;8.230;2023-05-29T08:23:40;17.45;;;2.33;;
37609;SDS011;23457;51.966;8.230;2023-05-29T08:26:08;15.82;;;2.80;;
37609;SDS011;23457;51.966;8.230;2023-05-29T08:28:35;18.77;;;3.20;;
37609;SDS011;23457;51.966;8.230;2023-05-29T08:31:02;18.88;;;3.83;;
37609;SDS011;23457;51.966;8.230;2023-05-29T08:33:29;15.75;;;3.70;;
37609;SDS011;23457;51.966;8.230;2023-05-29T08:35:57;18.48;;;2.33;;
37609;SDS011;23457;51.966;8.230;2023-05-29T08:38:25;12.70;;;2.40;;
37609;SDS011;23457;51.966;8.230;2023-05-29T08:40:55;13.38;;;2.50;;
37609;SDS011;23457;51.966;8.230;2023-05-29T08:43:23;15.30;;;2.78;;
37609;SDS011;23457;51.966;8.230;2023-05-29T08:45:58;17.00;;;2.97;;
37609;SDS011;23457;51.966;8.230;2023-05-29T08:48:28;17.02;;;3.17;;
37609;SDS011;23457;51.966;8.230;2023-05-29T08:50:57;14.65;;;2.40;;
37609;SDS011;23457;51.966;8.230;2023-05-29T08:53:24;14.48;;;2.80;;
37609;SDS011;23457;51.966;8.230;2023-05-29T08:55:52;13.52;;;2.90;;
37609;SDS011;23457;51.966;8.230;2023-05-29T08:58:20;17.55;;;3.35;;
37609;SDS011;23457;51.966;8.230;2023-05-29T09:00:50;15.48;;;2.58;;
37609;SDS011;23457;51.966;8.230;2023-05-29T09:03:18;14.73;;;2.92;;
37609;SDS011;23457;51.966;8.230;2023-05-29T09:05:46;14.30;;;2.50;;
37609;SDS011;23457;51.966;8.230;2023-05-29T09:08:15;15.52;;;2.70;;
37609;SDS011;23457;51.966;8.230;2023-05-29T09:10:43;13.60;;;2.63;;
37609;SDS011;23457;51.966;8.230;2023-05-29T09:13:11;16.52;;;2.97;;
37609;SDS011;23457;51.966;8.230;2023-05-29T09:15:40;14.63;;;3.00;;
37609;SDS011;23457;51.966;8.230;2023-05-29T09:18:10;14.63;;;2.90;;
37609;SDS011;23457;51.966;8.230;2023-05-29T09:20:37;21.02;;;3.65;;
37609;SDS011;23457;51.966;8.230;2023-05-29T09:23:06;19.27;;;3.30;;
37609;SDS011;23457;51.966;8.230;2023-05-29T09:25:36;18.70;;;3.20;;
37609;SDS011;23457;51.966;8.230;2023-05-29T09:28:07;13.43;;;3.63;;
37609;SDS011;23457;51.966;8.230;2023-05-29T09:33:09;14.48;;;2.80;;
37609;SDS011;23457;51.966;8.230;2023-05-29T09:35:38;16.27;;;3.00;;
37609;SDS011;23457;51.966;8.230;2023-05-29T09:38:09;25.35;;;3.78;;
37609;SDS011;23457;51.966;8.230;2023-05-29T09:43:10;12.98;;;2.53;;
37609;SDS011;23457;51.966;8.230;2023-05-29T09:45:44;13.30;;;2.42;;
37609;SDS011;23457;51.966;8.230;2023-05-29T09:48:13;10.95;;;3.30;;
37609;SDS011;23457;51.966;8.230;2023-05-29T09:50:44;11.13;;;2.65;;
37609;SDS011;23457;51.966;8.230;2023-05-29T09:55:51;14.73;;;2.60;;
37609;SDS011;23457;51.966;8.230;2023-05-29T09:58:21;13.98;;;2.60;;
37609;SDS011;23457;51.966;8.230;2023-05-29T10:00:49;11.30;;;2.67;;
37609;SDS011;23457;51.966;8.230;2023-05-29T10:03:20;15.48;;;2.75;;
37609;SDS011;23457;51.966;8.230;2023-05-29T10:05:52;8.27;;;2.73;;
37609;SDS011;23457;51.966;8.230;2023-05-29T10:08:23;16.63;;;2.40;;
37609;SDS011;23457;51.966;8.230;2023-05-29T10:11:00;12.63;;;3.10;;
37609;SDS011;23457;51.966;8.230;2023-05-29T10:13:34;13.50;;;2.80;;
37609;SDS011;23457;51.966;8.230;2023-05-29T10:16:06;10.50;;;2.83;;
37609;SDS011;23457;51.966;8.230;2023-05-29T10:18:38;11.02;;;2.67;;
37609;SDS011;23457;51.966;8.230;2023-05-29T10:21:08;13.15;;;2.75;;
37609;SDS011;23457;51.966;8.230;2023-05-29T10:23:38;11.10;;;3.05;;
37609;SDS011;23457;51.966;8.230;2023-05-29T10:26:20;10.88;;;2.42;;
37609;SDS011;23457;51.966;8.230;2023-05-29T10:28:50;13.25;;;2.40;;
37609;SDS011;23457;51.966;8.230;2023-05-29T10:31:33;11.82;;;3.13;;
37609;SDS011;23457;51.966;8.230;2023-05-29T10:37:21;16.48;;;2.67;;
37609;SDS011;23457;51.966;8.230;2023-05-29T10:40:07;12.07;;;2.30;;
37609;SDS011;23457;51.966;8.230;2023-05-29T10:42:47;15.57;;;3.33;;
37609;SDS011;23457;51.966;8.230;2023-05-29T10:45:47;9.65;;;2.40;;
37609;SDS011;23457;51.966;8.230;2023-05-29T10:53:07;10.98;;;2.78;;
37609;SDS011;23457;51.966;8.230;2023-05-29T10:55:37;10.02;;;2.55;;
37609;SDS011;23457;51.966;8.230;2023-05-29T10:58:08;14.40;;;3.20;;
37609;SDS011;23457;51.966;8.230;2023-05-29T11:00:41;12.73;;;3.30;;
37609;SDS011;23457;51.966;8.230;2023-05-29T11:03:09;13.30;;;3.15;;
37609;SDS011;23457;51.966;8.230;2023-05-29T11:08:44;13.77;;;2.85;;
37609;SDS011;23457;51.966;8.230;2023-05-29T11:11:32;10.38;;;2.85;;
37609;SDS011;23457;51.966;8.230;2023-05-29T11:14:05;10.45;;;2.50;;
37609;SDS011;23457;51.966;8.230;2023-05-29T11:19:03;11.02;;;2.80;;
37609;SDS011;23457;51.966;8.230;2023-05-29T11:24:35;13.55;;;3.17;;
37609;SDS011;23457;51.966;8.230;2023-05-29T11:27:04;12.30;;;2.65;;
37609;SDS011;23457;51.966;8.230;2023-05-29T11:29:34;10.75;;;2.92;;
37609;SDS011;23457;51.966;8.230;2023-05-29T11:32:02;10.55;;;2.88;;
37609;SDS011;23457;51.966;8.230;2023-05-29T11:34:31;10.23;;;2.30;;
37609;SDS011;23457;51.966;8.230;2023-05-29T11:36:59;10.95;;;2.70;;
37609;SDS011;23457;51.966;8.230;2023-05-29T11:39:28;9.85;;;2.95;;
37609;SDS011;23457;51.966;8.230;2023-05-29T11:41:55;11.00;;;3.22;;
37609;SDS011;23457;51.966;8.230;2023-05-29T11:44:25;10.63;;;2.80;;
37609;SDS011;23457;51.966;8.230;2023-05-29T11:47:06;10.52;;;2.63;;
37609;SDS011;23457;51.966;8.230;2023-05-29T11:49:35;9.65;;;2.80;;
37609;SDS011;23457;51.966;8.230;2023-05-29T11:52:11;14.65;;;3.40;;
37609;SDS011;23457;51.966;8.230;2023-05-29T11:54:43;12.13;;;2.70;;
37609;SDS011;23457;51.966;8.230;2023-05-29T11:57:30;11.95;;;3.33;;
37609;SDS011;23457;51.966;8.230;2023-05-29T11:59:57;10.95;;;2.85;;
37609;SDS011;23457;51.966;8.230;2023-05-29T12:02:25;15.20;;;2.90;;
37609;SDS011;23457;51.966;8.230;2023-05-29T12:05:01;9.55;;;2.53;;
37609;SDS011;23457;51.966;8.230;2023-05-29T12:07:28;13.38;;;2.42;;
37609;SDS011;23457;51.966;8.230;2023-05-29T12:09:55;10.48;;;3.28;;
37609;SDS011;23457;51.966;8.230;2023-05-29T12:12:24;10.88;;;2.60;;
37609;SDS011;23457;51.966;8.230;2023-05-29T12:14:50;13.10;;;2.60;;
37609;SDS011;23457;51.966;8.230;2023-05-29T12:17:18;5.95;;;2.28;;
37609;SDS011;23457;51.966;8.230;2023-05-29T12:19:45;8.68;;;2.60;;
37609;SDS011;23457;51.966;8.230;2023-05-29T12:22:12;11.40;;;3.00;;
37609;SDS011;23457;51.966;8.230;2023-05-29T12:24:39;10.65;;;2.45;;
37609;SDS011;23457;51.966;8.230;2023-05-29T12:27:09;9.02;;;2.60;;
37609;SDS011;23457;51.966;8.230;2023-05-29T12:29:36;10.30;;;2.80;;
37609;SDS011;23457;51.966;8.230;2023-05-29T12:32:02;11.77;;;2.60;;
37609;SDS011;23457;51.966;8.230;2023-05-29T12:34:38;13.32;;;2.97;;
37609;SDS011;23457;51.966;8.230;2023-05-29T12:37:07;9.40;;;2.38;;
37609;SDS011;23457;51.966;8.230;2023-05-29T12:39:39;9.50;;;2.78;;
37609;SDS011;23457;51.966;8.230;2023-05-29T12:42:06;12.32;;;2.50;;
37609;SDS011;23457;51.966;8.230;2023-05-29T12:44:33;10.20;;;2.53;;
37609;SDS011;23457;51.966;8.230;2023-05-29T12:47:00;13.65;;;2.72;;
37609;SDS011;23457;51.966;8.230;2023-05-29T12:49:26;13.18;;;2.78;;
37609;SDS011;23457;51.966;8.230;2023-05-29T12:51:55;10.93;;;2.13;;
37609;SDS011;23457;51.966;8.230;2023-05-29T12:54:34;11.70;;;2.80;;
37609;SDS011;23457;51.966;8.230;2023-05-29T12:57:00;11.55;;;3.17;;
37609;SDS011;23457;51.966;8.230;2023-05-29T12:59:28;9.48;;;2.63;;
37609;SDS011;23457;51.966;8.230;2023-05-29T13:01:55;9.57;;;2.50;;
37609;SDS011;23457;51.966;8.230;2023-05-29T13:04:21;9.75;;;2.92;;
37609;SDS011;23457;51.966;8.230;2023-05-29T13:06:48;9.68;;;2.53;;
37609;SDS011;23457;51.966;8.230;2023-05-29T13:09:15;11.68;;;3.10;;
37609;SDS011;23457;51.966;8.230;2023-05-29T13:11:42;9.65;;;2.58;;
37609;SDS011;23457;51.966;8.230;2023-05-29T13:14:08;10.35;;;2.72;;
37609;SDS011;23457;51.966;8.230;2023-05-29T13:16:35;10.07;;;3.00;;
37609;SDS011;23457;51.966;8.230;2023-05-29T13:19:02;9.18;;;3.15;;
37609;SDS011;23457;51.966;8.230;2023-05-29T13:21:29;14.38;;;3.10;;
37609;SDS011;23457;51.966;8.230;2023-05-29T13:23:55;10.38;;;2.90;;
37609;SDS011;23457;51.966;8.230;2023-05-29T13:26:22;7.40;;;2.53;;
37609;SDS011;23457;51.966;8.230;2023-05-29T13:28:49;11.40;;;3.13;;
37609;SDS011;23457;51.966;8.230;2023-05-29T13:31:18;10.18;;;2.50;;
37609;SDS011;23457;51.966;8.230;2023-05-29T13:36:14;9.52;;;2.75;;
37609;SDS011;23457;51.966;8.230;2023-05-29T13:38:40;7.32;;;2.78;;
37609;SDS011;23457;51.966;8.230;2023-05-29T13:41:07;10.65;;;2.97;;
37609;SDS011;23457;51.966;8.230;2023-05-29T13:43:33;11.55;;;2.70;;
37609;SDS011;23457;51.966;8.230;2023-05-29T13:46:10;11.00;;;3.00;;
37609;SDS011;23457;51.966;8.230;2023-05-29T13:48:37;11.82;;;3.15;;
37609;SDS011;23457;51.966;8.230;2023-05-29T13:51:06;12.75;;;3.53;;
37609;SDS011;23457;51.966;8.230;2023-05-29T13:53:33;11.95;;;2.83;;
37609;SDS011;23457;51.966;8.230;2023-05-29T13:55:59;12.35;;;3.17;;
37609;SDS011;23457;51.966;8.230;2023-05-29T13:58:26;15.07;;;3.28;;
37609;SDS011;23457;51.966;8.230;2023-05-29T14:00:52;12.68;;;3.47;;
37609;SDS011;23457;51.966;8.230;2023-05-29T14:03:19;9.32;;;2.80;;
37609;SDS011;23457;51.966;8.230;2023-05-29T14:05:48;7.60;;;2.80;;
37609;SDS011;23457;51.966;8.230;2023-05-29T14:08:15;12.13;;;2.78;;
37609;SDS011;23457;51.966;8.230;2023-05-29T14:10:41;13.65;;;2.53;;
37609;SDS011;23457;51.966;8.230;2023-05-29T14:13:08;10.10;;;2.20;;
37609;SDS011;23457;51.966;8.230;2023-05-29T14:15:35;6.05;;;2.47;;
37609;SDS011;23457;51.966;8.230;2023-05-29T14:20:31;7.35;;;2.30;;
37609;SDS011;23457;51.966;8.230;2023-05-29T14:22:58;6.03;;;2.30;;
37609;SDS011;23457;51.966;8.230;2023-05-29T14:25:25;9.57;;;2.53;;
37609;SDS011;23457;51.966;8.230;2023-05-29T14:27:51;9.73;;;2.60;;
37609;SDS011;23457;51.966;8.230;2023-05-29T14:30:18;9.30;;;2.55;;
37609;SDS011;23457;51.966;8.230;2023-05-29T14:32:45;9.45;;;2.60;;
37609;SDS011;23457;51.966;8.230;2023-05-29T14:35:12;11.90;;;3.30;;
37609;SDS011;23457;51.966;8.230;2023-05-29T14:37:38;10.90;;;2.58;;
37609;SDS011;23457;51.966;8.230;2023-05-29T14:40:05;6.95;;;2.90;;
37609;SDS011;23457;51.966;8.230;2023-05-29T14:42:32;9.68;;;3.13;;
37609;SDS011;23457;51.966;8.230;2023-05-29T14:45:00;10.23;;;2.85;;
37609;SDS011;23457;51.966;8.230;2023-05-29T14:47:26;8.25;;;2.17;;
37609;SDS011;23457;51.966;8.230;2023-05-29T14:49:53;11.48;;;2.63;;
37609;SDS011;23457;51.966;8.230;2023-05-29T14:52:20;11.38;;;2.35;;
37609;SDS011;23457;51.966;8.230;2023-05-29T14:54:46;9.52;;;2.67;;
37609;SDS011;23457;51.966;8.230;2023-05-29T14:57:13;11.50;;;2.78;;
37609;SDS011;23457;51.966;8.230;2023-05-29T14:59:40;8.98;;;2.83;;
37609;SDS011;23457;51.966;8.230;2023-05-29T15:02:06;9.23;;;3.05;;
37609;SDS011;23457;51.966;8.230;2023-05-29T15:04:33;9.68;;;2.78;;
37609;SDS011;23457;51.966;8.230;2023-05-29T15:07:00;7.68;;;2.63;;
37609;SDS011;23457;51.966;8.230;2023-05-29T15:09:32;9.13;;;2.53;;
37609;SDS011;23457;51.966;8.230;2023-05-29T15:14:29;7.55;;;2.70;;
37609;SDS011;23457;51.966;8.230;2023-05-29T15:16:56;9.18;;;2.80;;
37609;SDS011;23457;51.966;8.230;2023-05-29T15:19:23;8.82;;;2.83;;
37609;SDS011;23457;51.966;8.230;2023-05-29T15:21:50;13.75;;;2.90;;
37609;SDS011;23457;51.966;8.230;2023-05-29T15:24:17;8.90;;;3.25;;
37609;SDS011;23457;51.966;8.230;2023-05-29T15:26:44;9.18;;;2.70;;
37609;SDS011;23457;51.966;8.230;2023-05-29T15:29:10;10.50;;;2.38;;
37609;SDS011;23457;51.966;8.230;2023-05-29T15:31:37;8.98;;;2.05;;